sensor_id;sensor_type;location;lat;lon;timestamp;temperature;humidity
7447;DHT22;3765;47.962;7.952;2022-12-07T00:01:38;4.60;79.10
7447;DHT22;3765;47.962;7.952;2022-12-07T00:04:10;4.60;79.10
7447;DHT22;3765;47.962;7.952;2022-12-07T00:06:40;4.60;79.00
7447;DHT22;3765;47.962;7.952;2022-12-07T00:09:11;4.70;79.10
7447;DHT22;3765;47.962;7.952;2022-12-07T00:11:40;4.70;79.10
7447;DHT22;3765;47.962;7.952;2022-12-07T00:14:12;4.80;78.90
7447;DHT22;3765;47.962;7.952;2022-12-07T00:16:41;4.80;78.90
7447;DHT22;3765;47.962;7.952;2022-12-07T00:19:11;4.80;78.90
7447;DHT22;3765;47.962;7.952;2022-12-07T00:21:40;4.80;78.90
7447;DHT22;3765;47.962;7.952;2022-12-07T00:24:10;4.80;78.90
7447;DHT22;3765;47.962;7.952;2022-12-07T00:26:40;4.80;78.80
7447;DHT22;3765;47.962;7.952;2022-12-07T00:29:13;4.70;78.90
7447;DHT22;3765;47.962;7.952;2022-12-07T00:31:42;4.60;78.90
7447;DHT22;3765;47.962;7.952;2022-12-07T00:34:14;4.70;79.10
7447;DHT22;3765;47.962;7.952;2022-12-07T00:36:43;4.60;78.90
7447;DHT22;3765;47.962;7.952;2022-12-07T00:39:11;4.70;79.10
7447;DHT22;3765;47.962;7.952;2022-12-07T00:41:39;4.70;78.90
7447;DHT22;3765;47.962;7.952;2022-12-07T00:44:08;4.80;79.00
7447;DHT22;3765;47.962;7.952;2022-12-07T00:46:36;4.60;78.70
7447;DHT22;3765;47.962;7.952;2022-12-07T00:49:05;4.70;78.90
7447;DHT22;3765;47.962;7.952;2022-12-07T00:51:35;4.70;79.00
7447;DHT22;3765;47.962;7.952;2022-12-07T00:54:03;4.70;78.90
7447;DHT22;3765;47.962;7.952;2022-12-07T00:56:32;4.70;78.80
7447;DHT22;3765;47.962;7.952;2022-12-07T00:59:01;4.70;78.70
7447;DHT22;3765;47.962;7.952;2022-12-07T01:01:32;4.60;78.80
7447;DHT22;3765;47.962;7.952;2022-12-07T01:04:01;4.70;78.70
7447;DHT22;3765;47.962;7.952;2022-12-07T01:06:30;4.80;78.70
7447;DHT22;3765;47.962;7.952;2022-12-07T01:09:00;4.80;78.60
7447;DHT22;3765;47.962;7.952;2022-12-07T01:11:30;4.80;78.60
7447;DHT22;3765;47.962;7.952;2022-12-07T01:13:59;4.80;78.60
7447;DHT22;3765;47.962;7.952;2022-12-07T01:16:29;4.80;78.50
7447;DHT22;3765;47.962;7.952;2022-12-07T01:18:59;4.80;78.40
7447;DHT22;3765;47.962;7.952;2022-12-07T01:21:30;4.90;78.50
7447;DHT22;3765;47.962;7.952;2022-12-07T01:24:04;4.80;78.20
7447;DHT22;3765;47.962;7.952;2022-12-07T01:26:32;4.90;78.30
7447;DHT22;3765;47.962;7.952;2022-12-07T01:29:01;4.90;78.30
7447;DHT22;3765;47.962;7.952;2022-12-07T01:31:29;4.90;78.20
7447;DHT22;3765;47.962;7.952;2022-12-07T01:33:59;4.90;78.30
7447;DHT22;3765;47.962;7.952;2022-12-07T01:36:28;4.90;78.40
7447;DHT22;3765;47.962;7.952;2022-12-07T01:38:58;4.90;78.20
7447;DHT22;3765;47.962;7.952;2022-12-07T01:41:32;4.90;78.40
7447;DHT22;3765;47.962;7.952;2022-12-07T01:46:50;4.90;78.40
7447;DHT22;3765;47.962;7.952;2022-12-07T01:49:24;4.90;78.40
7447;DHT22;3765;47.962;7.952;2022-12-07T01:51:59;4.90;78.40
7447;DHT22;3765;47.962;7.952;2022-12-07T01:54:29;4.90;78.40
7447;DHT22;3765;47.962;7.952;2022-12-07T01:56:59;4.90;78.30
7447;DHT22;3765;47.962;7.952;2022-12-07T01:59:28;4.90;78.30
7447;DHT22;3765;47.962;7.952;2022-12-07T02:01:56;4.90;78.30
7447;DHT22;3765;47.962;7.952;2022-12-07T02:04:25;4.90;78.30
7447;DHT22;3765;47.962;7.952;2022-12-07T02:06:53;4.90;78.20
7447;DHT22;3765;47.962;7.952;2022-12-07T02:09:22;4.80;78.10
7447;DHT22;3765;47.962;7.952;2022-12-07T02:11:51;4.80;78.20
7447;DHT22;3765;47.962;7.952;2022-12-07T02:14:21;4.60;78.30
7447;DHT22;3765;47.962;7.952;2022-12-07T02:16:58;4.60;78.40
7447;DHT22;3765;47.962;7.952;2022-12-07T02:19:59;4.70;78.60
7447;DHT22;3765;47.962;7.952;2022-12-07T02:22:48;4.60;78.50
7447;DHT22;3765;47.962;7.952;2022-12-07T02:25:26;4.60;78.70
7447;DHT22;3765;47.962;7.952;2022-12-07T02:28:03;4.70;78.60
7447;DHT22;3765;47.962;7.952;2022-12-07T02:30:37;4.50;78.70
7447;DHT22;3765;47.962;7.952;2022-12-07T02:33:11;4.50;78.80
7447;DHT22;3765;47.962;7.952;2022-12-07T02:35:43;4.50;78.80
7447;DHT22;3765;47.962;7.952;2022-12-07T02:38:16;4.50;79.00
7447;DHT22;3765;47.962;7.952;2022-12-07T02:40:57;4.60;79.00
7447;DHT22;3765;47.962;7.952;2022-12-07T02:43:28;4.60;79.10
7447;DHT22;3765;47.962;7.952;2022-12-07T02:46:03;4.70;79.10
7447;DHT22;3765;47.962;7.952;2022-12-07T02:48:33;4.70;79.10
7447;DHT22;3765;47.962;7.952;2022-12-07T02:51:01;4.80;79.10
7447;DHT22;3765;47.962;7.952;2022-12-07T02:53:31;4.80;79.00
7447;DHT22;3765;47.962;7.952;2022-12-07T02:56:04;4.60;79.00
7447;DHT22;3765;47.962;7.952;2022-12-07T02:58:46;4.60;79.20
7447;DHT22;3765;47.962;7.952;2022-12-07T03:01:28;4.60;79.30
7447;DHT22;3765;47.962;7.952;2022-12-07T03:04:11;4.60;79.20
7447;DHT22;3765;47.962;7.952;2022-12-07T03:06:45;4.60;79.30
7447;DHT22;3765;47.962;7.952;2022-12-07T03:09:20;4.60;79.40
7447;DHT22;3765;47.962;7.952;2022-12-07T03:11:51;4.60;79.60
7447;DHT22;3765;47.962;7.952;2022-12-07T03:14:25;4.60;79.60
7447;DHT22;3765;47.962;7.952;2022-12-07T03:17:00;4.60;79.60
7447;DHT22;3765;47.962;7.952;2022-12-07T03:19:31;4.60;79.70
7447;DHT22;3765;47.962;7.952;2022-12-07T03:22:04;4.60;79.70
7447;DHT22;3765;47.962;7.952;2022-12-07T03:24:36;4.60;79.70
7447;DHT22;3765;47.962;7.952;2022-12-07T03:27:09;4.60;79.80
7447;DHT22;3765;47.962;7.952;2022-12-07T03:29:43;4.60;80.00
7447;DHT22;3765;47.962;7.952;2022-12-07T03:32:19;4.70;80.00
7447;DHT22;3765;47.962;7.952;2022-12-07T03:34:53;4.70;80.00
7447;DHT22;3765;47.962;7.952;2022-12-07T03:37:31;4.70;80.10
7447;DHT22;3765;47.962;7.952;2022-12-07T03:40:05;4.80;80.10
7447;DHT22;3765;47.962;7.952;2022-12-07T03:42:35;4.80;80.10
7447;DHT22;3765;47.962;7.952;2022-12-07T03:45:05;4.80;80.10
7447;DHT22;3765;47.962;7.952;2022-12-07T03:47:37;4.80;80.10
7447;DHT22;3765;47.962;7.952;2022-12-07T03:50:14;4.80;80.10
7447;DHT22;3765;47.962;7.952;2022-12-07T03:52:47;4.70;80.10
7447;DHT22;3765;47.962;7.952;2022-12-07T03:55:20;4.70;80.30
7447;DHT22;3765;47.962;7.952;2022-12-07T03:57:53;4.80;80.20
7447;DHT22;3765;47.962;7.952;2022-12-07T04:00:23;4.70;80.10
7447;DHT22;3765;47.962;7.952;2022-12-07T04:02:53;4.70;80.20
7447;DHT22;3765;47.962;7.952;2022-12-07T04:05:23;4.80;80.20
7447;DHT22;3765;47.962;7.952;2022-12-07T04:07:51;4.80;80.10
7447;DHT22;3765;47.962;7.952;2022-12-07T04:10:19;4.80;80.20
7447;DHT22;3765;47.962;7.952;2022-12-07T04:12:48;4.80;80.10
7447;DHT22;3765;47.962;7.952;2022-12-07T04:15:16;4.80;80.10
7447;DHT22;3765;47.962;7.952;2022-12-07T04:17:44;4.70;80.00
7447;DHT22;3765;47.962;7.952;2022-12-07T04:20:14;4.70;80.10
7447;DHT22;3765;47.962;7.952;2022-12-07T04:22:42;4.60;79.90
7447;DHT22;3765;47.962;7.952;2022-12-07T04:25:10;4.60;80.10
7447;DHT22;3765;47.962;7.952;2022-12-07T04:27:38;4.60;80.10
7447;DHT22;3765;47.962;7.952;2022-12-07T04:30:07;4.60;80.10
7447;DHT22;3765;47.962;7.952;2022-12-07T04:32:36;4.50;80.20
7447;DHT22;3765;47.962;7.952;2022-12-07T04:35:05;4.60;80.20
7447;DHT22;3765;47.962;7.952;2022-12-07T04:37:34;4.60;80.10
7447;DHT22;3765;47.962;7.952;2022-12-07T04:40:03;4.60;80.20
7447;DHT22;3765;47.962;7.952;2022-12-07T04:42:32;4.60;80.10
7447;DHT22;3765;47.962;7.952;2022-12-07T04:45:00;4.70;80.10
7447;DHT22;3765;47.962;7.952;2022-12-07T04:47:28;4.70;80.00
7447;DHT22;3765;47.962;7.952;2022-12-07T04:49:57;4.60;80.00
7447;DHT22;3765;47.962;7.952;2022-12-07T04:52:25;4.60;80.10
7447;DHT22;3765;47.962;7.952;2022-12-07T04:54:55;4.60;80.10
7447;DHT22;3765;47.962;7.952;2022-12-07T04:57:23;4.60;80.00
7447;DHT22;3765;47.962;7.952;2022-12-07T04:59:51;4.60;80.00
7447;DHT22;3765;47.962;7.952;2022-12-07T05:02:19;4.60;80.00
7447;DHT22;3765;47.962;7.952;2022-12-07T05:04:48;4.50;80.00
7447;DHT22;3765;47.962;7.952;2022-12-07T05:07:16;4.40;79.90
7447;DHT22;3765;47.962;7.952;2022-12-07T05:09:44;4.40;80.10
7447;DHT22;3765;47.962;7.952;2022-12-07T05:12:14;4.40;80.20
7447;DHT22;3765;47.962;7.952;2022-12-07T05:14:42;4.30;80.20
7447;DHT22;3765;47.962;7.952;2022-12-07T05:17:10;4.40;80.30
7447;DHT22;3765;47.962;7.952;2022-12-07T05:19:38;4.30;80.40
7447;DHT22;3765;47.962;7.952;2022-12-07T05:22:06;4.30;80.40
7447;DHT22;3765;47.962;7.952;2022-12-07T05:24:35;4.20;80.40
7447;DHT22;3765;47.962;7.952;2022-12-07T05:27:03;4.20;80.60
7447;DHT22;3765;47.962;7.952;2022-12-07T05:29:33;4.30;80.50
7447;DHT22;3765;47.962;7.952;2022-12-07T05:32:01;4.30;80.40
7447;DHT22;3765;47.962;7.952;2022-12-07T05:34:29;4.20;80.50
7447;DHT22;3765;47.962;7.952;2022-12-07T05:36:57;4.30;80.50
7447;DHT22;3765;47.962;7.952;2022-12-07T05:39:26;4.30;80.40
7447;DHT22;3765;47.962;7.952;2022-12-07T05:41:54;4.30;80.50
7447;DHT22;3765;47.962;7.952;2022-12-07T05:44:43;4.30;80.40
7447;DHT22;3765;47.962;7.952;2022-12-07T05:47:12;4.30;80.30
7447;DHT22;3765;47.962;7.952;2022-12-07T05:49:41;4.30;80.30
7447;DHT22;3765;47.962;7.952;2022-12-07T05:52:10;4.30;80.20
7447;DHT22;3765;47.962;7.952;2022-12-07T05:54:38;4.30;80.20
7447;DHT22;3765;47.962;7.952;2022-12-07T05:57:06;4.30;80.20
7447;DHT22;3765;47.962;7.952;2022-12-07T05:59:34;4.30;80.30
7447;DHT22;3765;47.962;7.952;2022-12-07T06:02:05;4.30;80.30
7447;DHT22;3765;47.962;7.952;2022-12-07T06:04:35;4.30;80.20
7447;DHT22;3765;47.962;7.952;2022-12-07T06:07:04;4.30;80.20
7447;DHT22;3765;47.962;7.952;2022-12-07T06:09:33;4.30;80.20
7447;DHT22;3765;47.962;7.952;2022-12-07T06:12:02;4.30;80.10
7447;DHT22;3765;47.962;7.952;2022-12-07T06:14:48;4.20;80.00
7447;DHT22;3765;47.962;7.952;2022-12-07T06:17:18;4.20;80.00
7447;DHT22;3765;47.962;7.952;2022-12-07T06:19:46;4.20;79.90
7447;DHT22;3765;47.962;7.952;2022-12-07T06:22:15;4.20;79.90
7447;DHT22;3765;47.962;7.952;2022-12-07T06:24:43;4.10;79.80
7447;DHT22;3765;47.962;7.952;2022-12-07T06:27:11;4.10;80.00
7447;DHT22;3765;47.962;7.952;2022-12-07T06:29:39;4.00;80.00
7447;DHT22;3765;47.962;7.952;2022-12-07T06:32:08;4.10;80.20
7447;DHT22;3765;47.962;7.952;2022-12-07T06:34:37;4.00;80.10
7447;DHT22;3765;47.962;7.952;2022-12-07T06:37:06;3.90;80.10
7447;DHT22;3765;47.962;7.952;2022-12-07T06:39:34;3.90;80.30
7447;DHT22;3765;47.962;7.952;2022-12-07T06:42:02;3.90;80.30
7447;DHT22;3765;47.962;7.952;2022-12-07T06:44:30;3.80;80.20
7447;DHT22;3765;47.962;7.952;2022-12-07T06:46:59;3.70;80.20
7447;DHT22;3765;47.962;7.952;2022-12-07T06:49:49;3.70;80.30
7447;DHT22;3765;47.962;7.952;2022-12-07T06:52:17;3.60;80.30
7447;DHT22;3765;47.962;7.952;2022-12-07T06:54:45;3.50;80.10
7447;DHT22;3765;47.962;7.952;2022-12-07T06:57:13;3.40;80.50
7447;DHT22;3765;47.962;7.952;2022-12-07T06:59:41;3.30;80.40
7447;DHT22;3765;47.962;7.952;2022-12-07T07:02:10;3.30;80.30
7447;DHT22;3765;47.962;7.952;2022-12-07T07:04:38;3.20;80.50
7447;DHT22;3765;47.962;7.952;2022-12-07T07:07:08;3.10;80.30
7447;DHT22;3765;47.962;7.952;2022-12-07T07:09:36;3.10;80.50
7447;DHT22;3765;47.962;7.952;2022-12-07T07:12:04;3.10;80.60
7447;DHT22;3765;47.962;7.952;2022-12-07T07:14:32;3.10;80.50
7447;DHT22;3765;47.962;7.952;2022-12-07T07:17:01;3.10;80.50
7447;DHT22;3765;47.962;7.952;2022-12-07T07:19:29;3.10;80.60
7447;DHT22;3765;47.962;7.952;2022-12-07T07:21:57;3.10;80.50
7447;DHT22;3765;47.962;7.952;2022-12-07T07:24:27;3.10;80.40
7447;DHT22;3765;47.962;7.952;2022-12-07T07:26:55;3.10;80.40
7447;DHT22;3765;47.962;7.952;2022-12-07T07:29:23;3.00;80.40
7447;DHT22;3765;47.962;7.952;2022-12-07T07:31:51;3.00;80.60
7447;DHT22;3765;47.962;7.952;2022-12-07T07:34:19;3.00;80.60
7447;DHT22;3765;47.962;7.952;2022-12-07T07:36:48;3.00;80.50
7447;DHT22;3765;47.962;7.952;2022-12-07T07:39:16;3.00;80.60
7447;DHT22;3765;47.962;7.952;2022-12-07T07:41:46;2.90;80.50
7447;DHT22;3765;47.962;7.952;2022-12-07T07:44:14;2.90;80.50
7447;DHT22;3765;47.962;7.952;2022-12-07T07:46:43;2.80;80.40
7447;DHT22;3765;47.962;7.952;2022-12-07T07:49:11;2.70;80.30
7447;DHT22;3765;47.962;7.952;2022-12-07T07:51:39;2.60;80.50
7447;DHT22;3765;47.962;7.952;2022-12-07T07:54:07;2.70;80.80
7447;DHT22;3765;47.962;7.952;2022-12-07T07:56:35;2.60;80.70
7447;DHT22;3765;47.962;7.952;2022-12-07T07:59:05;2.70;80.70
7447;DHT22;3765;47.962;7.952;2022-12-07T08:01:33;2.70;80.80
7447;DHT22;3765;47.962;7.952;2022-12-07T08:04:01;2.70;80.80
7447;DHT22;3765;47.962;7.952;2022-12-07T08:06:30;2.70;80.80
7447;DHT22;3765;47.962;7.952;2022-12-07T08:08:58;2.80;80.80
7447;DHT22;3765;47.962;7.952;2022-12-07T08:11:26;2.80;80.80
7447;DHT22;3765;47.962;7.952;2022-12-07T08:13:55;2.80;80.80
7447;DHT22;3765;47.962;7.952;2022-12-07T08:16:24;2.60;80.50
7447;DHT22;3765;47.962;7.952;2022-12-07T08:18:52;2.60;80.80
7447;DHT22;3765;47.962;7.952;2022-12-07T08:21:21;2.60;80.70
7447;DHT22;3765;47.962;7.952;2022-12-07T08:23:49;2.50;80.70
7447;DHT22;3765;47.962;7.952;2022-12-07T08:26:17;2.60;80.70
7447;DHT22;3765;47.962;7.952;2022-12-07T08:28:45;2.60;80.80
7447;DHT22;3765;47.962;7.952;2022-12-07T08:31:15;2.70;80.70
7447;DHT22;3765;47.962;7.952;2022-12-07T08:33:46;2.80;80.70
7447;DHT22;3765;47.962;7.952;2022-12-07T08:36:15;2.90;80.60
7447;DHT22;3765;47.962;7.952;2022-12-07T08:38:44;3.00;80.50
7447;DHT22;3765;47.962;7.952;2022-12-07T08:41:32;3.20;80.40
7447;DHT22;3765;47.962;7.952;2022-12-07T08:44:01;3.30;80.30
7447;DHT22;3765;47.962;7.952;2022-12-07T08:46:32;3.40;80.20
7447;DHT22;3765;47.962;7.952;2022-12-07T08:49:09;3.40;80.00
7447;DHT22;3765;47.962;7.952;2022-12-07T08:51:40;3.40;79.90
7447;DHT22;3765;47.962;7.952;2022-12-07T08:54:12;3.60;79.90
7447;DHT22;3765;47.962;7.952;2022-12-07T08:56:42;3.70;79.80
7447;DHT22;3765;47.962;7.952;2022-12-07T08:59:12;3.80;79.60
7447;DHT22;3765;47.962;7.952;2022-12-07T09:01:42;3.90;79.70
7447;DHT22;3765;47.962;7.952;2022-12-07T09:04:12;4.10;79.60
7447;DHT22;3765;47.962;7.952;2022-12-07T09:06:40;4.20;79.30
7447;DHT22;3765;47.962;7.952;2022-12-07T09:09:09;4.30;79.00
7447;DHT22;3765;47.962;7.952;2022-12-07T09:11:39;4.60;78.90
7447;DHT22;3765;47.962;7.952;2022-12-07T09:14:07;4.70;78.30
7447;DHT22;3765;47.962;7.952;2022-12-07T09:16:39;4.70;78.30
7447;DHT22;3765;47.962;7.952;2022-12-07T09:19:08;4.80;78.00
7447;DHT22;3765;47.962;7.952;2022-12-07T09:21:40;4.80;78.00
7447;DHT22;3765;47.962;7.952;2022-12-07T09:24:08;4.90;77.70
7447;DHT22;3765;47.962;7.952;2022-12-07T09:26:52;5.00;77.20
7447;DHT22;3765;47.962;7.952;2022-12-07T09:29:22;5.00;77.10
7447;DHT22;3765;47.962;7.952;2022-12-07T09:31:52;5.10;76.90
7447;DHT22;3765;47.962;7.952;2022-12-07T09:34:21;5.10;76.80
7447;DHT22;3765;47.962;7.952;2022-12-07T09:36:50;5.10;76.40
7447;DHT22;3765;47.962;7.952;2022-12-07T09:39:18;5.10;76.30
7447;DHT22;3765;47.962;7.952;2022-12-07T09:41:47;5.20;76.10
7447;DHT22;3765;47.962;7.952;2022-12-07T09:44:21;5.10;75.60
7447;DHT22;3765;47.962;7.952;2022-12-07T09:46:51;5.30;75.40
7447;DHT22;3765;47.962;7.952;2022-12-07T09:49:21;5.30;74.90
7447;DHT22;3765;47.962;7.952;2022-12-07T09:52:16;5.40;74.70
7447;DHT22;3765;47.962;7.952;2022-12-07T09:54:47;5.50;74.50
7447;DHT22;3765;47.962;7.952;2022-12-07T09:57:16;5.60;74.30
7447;DHT22;3765;47.962;7.952;2022-12-07T09:59:45;5.70;73.90
7447;DHT22;3765;47.962;7.952;2022-12-07T10:02:28;5.80;73.50
7447;DHT22;3765;47.962;7.952;2022-12-07T10:05:02;5.80;73.30
7447;DHT22;3765;47.962;7.952;2022-12-07T10:07:36;5.90;73.10
7447;DHT22;3765;47.962;7.952;2022-12-07T10:10:09;5.80;72.70
7447;DHT22;3765;47.962;7.952;2022-12-07T10:12:53;5.90;71.60
7447;DHT22;3765;47.962;7.952;2022-12-07T10:15:22;5.90;70.80
7447;DHT22;3765;47.962;7.952;2022-12-07T10:17:51;5.90;70.10
7447;DHT22;3765;47.962;7.952;2022-12-07T10:20:26;5.90;69.70
7447;DHT22;3765;47.962;7.952;2022-12-07T10:23:04;6.00;69.50
7447;DHT22;3765;47.962;7.952;2022-12-07T10:25:36;6.00;69.60
7447;DHT22;3765;47.962;7.952;2022-12-07T10:28:13;6.10;69.50
7447;DHT22;3765;47.962;7.952;2022-12-07T10:30:51;6.10;69.10
7447;DHT22;3765;47.962;7.952;2022-12-07T10:33:31;6.20;69.30
7447;DHT22;3765;47.962;7.952;2022-12-07T10:36:00;6.30;68.70
7447;DHT22;3765;47.962;7.952;2022-12-07T10:38:30;6.30;68.70
7447;DHT22;3765;47.962;7.952;2022-12-07T10:41:06;6.40;68.30
7447;DHT22;3765;47.962;7.952;2022-12-07T10:43:34;6.40;68.30
7447;DHT22;3765;47.962;7.952;2022-12-07T10:49:39;6.40;67.50
7447;DHT22;3765;47.962;7.952;2022-12-07T10:52:18;6.40;67.30
7447;DHT22;3765;47.962;7.952;2022-12-07T10:55:06;6.50;67.10
7447;DHT22;3765;47.962;7.952;2022-12-07T10:57:46;6.50;66.80
7447;DHT22;3765;47.962;7.952;2022-12-07T11:00:18;6.60;66.90
7447;DHT22;3765;47.962;7.952;2022-12-07T11:03:08;6.60;66.40
7447;DHT22;3765;47.962;7.952;2022-12-07T11:05:47;6.70;66.20
7447;DHT22;3765;47.962;7.952;2022-12-07T11:08:24;6.70;65.90
7447;DHT22;3765;47.962;7.952;2022-12-07T11:10:57;6.50;65.60
7447;DHT22;3765;47.962;7.952;2022-12-07T11:13:30;6.50;65.40
7447;DHT22;3765;47.962;7.952;2022-12-07T11:19:25;6.60;65.20
7447;DHT22;3765;47.962;7.952;2022-12-07T11:21:58;6.60;64.90
7447;DHT22;3765;47.962;7.952;2022-12-07T11:24:32;6.70;64.90
7447;DHT22;3765;47.962;7.952;2022-12-07T11:27:15;6.70;64.70
7447;DHT22;3765;47.962;7.952;2022-12-07T11:29:52;6.80;64.70
7447;DHT22;3765;47.962;7.952;2022-12-07T11:32:38;6.70;63.50
7447;DHT22;3765;47.962;7.952;2022-12-07T11:35:18;6.60;64.00
7447;DHT22;3765;47.962;7.952;2022-12-07T11:37:55;6.70;63.80
7447;DHT22;3765;47.962;7.952;2022-12-07T11:40:28;6.70;63.70
7447;DHT22;3765;47.962;7.952;2022-12-07T11:43:01;6.80;63.60
7447;DHT22;3765;47.962;7.952;2022-12-07T11:45:34;6.90;63.20
7447;DHT22;3765;47.962;7.952;2022-12-07T11:48:10;7.00;63.10
7447;DHT22;3765;47.962;7.952;2022-12-07T11:50:43;6.90;62.80
7447;DHT22;3765;47.962;7.952;2022-12-07T11:53:19;6.90;62.90
7447;DHT22;3765;47.962;7.952;2022-12-07T11:55:54;7.10;62.80
7447;DHT22;3765;47.962;7.952;2022-12-07T11:58:37;7.00;62.10
7447;DHT22;3765;47.962;7.952;2022-12-07T12:01:18;7.20;62.40
7447;DHT22;3765;47.962;7.952;2022-12-07T12:03:52;7.40;62.00
7447;DHT22;3765;47.962;7.952;2022-12-07T12:06:21;7.40;61.70
7447;DHT22;3765;47.962;7.952;2022-12-07T12:08:53;7.40;61.30
7447;DHT22;3765;47.962;7.952;2022-12-07T12:11:56;7.40;61.10
7447;DHT22;3765;47.962;7.952;2022-12-07T12:14:59;7.40;60.80
7447;DHT22;3765;47.962;7.952;2022-12-07T12:18:07;7.50;61.00
7447;DHT22;3765;47.962;7.952;2022-12-07T12:20:42;7.60;60.80
7447;DHT22;3765;47.962;7.952;2022-12-07T12:23:13;7.80;60.40
7447;DHT22;3765;47.962;7.952;2022-12-07T12:25:46;7.80;60.00
7447;DHT22;3765;47.962;7.952;2022-12-07T12:28:25;7.90;60.10
7447;DHT22;3765;47.962;7.952;2022-12-07T12:31:08;7.90;59.70
7447;DHT22;3765;47.962;7.952;2022-12-07T12:33:38;8.10;59.70
7447;DHT22;3765;47.962;7.952;2022-12-07T12:36:24;8.10;59.40
7447;DHT22;3765;47.962;7.952;2022-12-07T12:39:09;8.30;59.20
7447;DHT22;3765;47.962;7.952;2022-12-07T12:41:59;8.40;58.90
7447;DHT22;3765;47.962;7.952;2022-12-07T12:45:11;8.40;58.40
7447;DHT22;3765;47.962;7.952;2022-12-07T12:48:04;8.50;58.10
7447;DHT22;3765;47.962;7.952;2022-12-07T12:50:34;8.50;57.50
7447;DHT22;3765;47.962;7.952;2022-12-07T12:53:16;8.50;57.50
7447;DHT22;3765;47.962;7.952;2022-12-07T12:56:20;8.50;57.40
7447;DHT22;3765;47.962;7.952;2022-12-07T12:59:26;8.70;57.20
7447;DHT22;3765;47.962;7.952;2022-12-07T13:02:08;8.60;56.80
7447;DHT22;3765;47.962;7.952;2022-12-07T13:04:51;8.70;57.10
7447;DHT22;3765;47.962;7.952;2022-12-07T13:07:57;8.80;56.80
7447;DHT22;3765;47.962;7.952;2022-12-07T13:10:36;9.00;56.70
7447;DHT22;3765;47.962;7.952;2022-12-07T13:13:28;9.10;56.50
7447;DHT22;3765;47.962;7.952;2022-12-07T13:18:59;9.40;55.90
7447;DHT22;3765;47.962;7.952;2022-12-07T13:21:52;9.60;55.50
7447;DHT22;3765;47.962;7.952;2022-12-07T13:24:21;9.40;55.00
7447;DHT22;3765;47.962;7.952;2022-12-07T13:26:56;9.20;55.00
7447;DHT22;3765;47.962;7.952;2022-12-07T13:29:25;9.20;55.40
7447;DHT22;3765;47.962;7.952;2022-12-07T13:31:54;9.30;55.20
7447;DHT22;3765;47.962;7.952;2022-12-07T13:34:29;9.40;54.80
7447;DHT22;3765;47.962;7.952;2022-12-07T13:37:00;9.30;55.50
7447;DHT22;3765;47.962;7.952;2022-12-07T13:39:29;9.20;55.50
7447;DHT22;3765;47.962;7.952;2022-12-07T13:41:58;9.00;55.80
7447;DHT22;3765;47.962;7.952;2022-12-07T13:44:34;8.80;56.10
7447;DHT22;3765;47.962;7.952;2022-12-07T13:47:15;8.60;56.50
7447;DHT22;3765;47.962;7.952;2022-12-07T13:49:48;8.70;56.70
7447;DHT22;3765;47.962;7.952;2022-12-07T13:52:24;8.50;56.40
7447;DHT22;3765;47.962;7.952;2022-12-07T13:54:57;8.20;56.40
7447;DHT22;3765;47.962;7.952;2022-12-07T13:57:27;8.10;56.90
7447;DHT22;3765;47.962;7.952;2022-12-07T13:59:56;8.20;57.10
7447;DHT22;3765;47.962;7.952;2022-12-07T14:02:27;8.10;57.40
7447;DHT22;3765;47.962;7.952;2022-12-07T14:05:10;8.20;57.40
7447;DHT22;3765;47.962;7.952;2022-12-07T14:07:53;8.30;57.30
7447;DHT22;3765;47.962;7.952;2022-12-07T14:10:25;8.30;57.10
7447;DHT22;3765;47.962;7.952;2022-12-07T14:12:54;8.10;56.40
7447;DHT22;3765;47.962;7.952;2022-12-07T14:15:24;8.10;56.20
7447;DHT22;3765;47.962;7.952;2022-12-07T14:17:54;8.10;56.10
7447;DHT22;3765;47.962;7.952;2022-12-07T14:20:30;8.10;56.20
7447;DHT22;3765;47.962;7.952;2022-12-07T14:23:01;8.00;56.00
7447;DHT22;3765;47.962;7.952;2022-12-07T14:25:45;8.00;55.90
7447;DHT22;3765;47.962;7.952;2022-12-07T14:28:28;7.90;56.10
7447;DHT22;3765;47.962;7.952;2022-12-07T14:30:56;7.90;56.30
7447;DHT22;3765;47.962;7.952;2022-12-07T14:33:25;7.90;56.40
7447;DHT22;3765;47.962;7.952;2022-12-07T14:35:54;7.90;56.40
7447;DHT22;3765;47.962;7.952;2022-12-07T14:38:26;7.90;56.40
7447;DHT22;3765;47.962;7.952;2022-12-07T14:40:55;7.80;56.60
7447;DHT22;3765;47.962;7.952;2022-12-07T14:43:43;7.80;56.60
7447;DHT22;3765;47.962;7.952;2022-12-07T14:46:32;7.70;56.70
7447;DHT22;3765;47.962;7.952;2022-12-07T14:49:00;7.60;56.90
7447;DHT22;3765;47.962;7.952;2022-12-07T14:51:49;7.50;57.10
7447;DHT22;3765;47.962;7.952;2022-12-07T14:54:38;7.30;57.40
7447;DHT22;3765;47.962;7.952;2022-12-07T14:57:08;7.20;57.50
7447;DHT22;3765;47.962;7.952;2022-12-07T14:59:36;7.10;57.60
7447;DHT22;3765;47.962;7.952;2022-12-07T15:02:12;7.00;57.90
7447;DHT22;3765;47.962;7.952;2022-12-07T15:04:42;6.80;58.00
7447;DHT22;3765;47.962;7.952;2022-12-07T15:07:16;6.60;58.60
7447;DHT22;3765;47.962;7.952;2022-12-07T15:09:48;6.50;58.80
7447;DHT22;3765;47.962;7.952;2022-12-07T15:12:16;6.40;59.00
7447;DHT22;3765;47.962;7.952;2022-12-07T15:14:44;6.40;59.10
7447;DHT22;3765;47.962;7.952;2022-12-07T15:17:12;6.20;59.20
7447;DHT22;3765;47.962;7.952;2022-12-07T15:19:57;5.90;59.60
7447;DHT22;3765;47.962;7.952;2022-12-07T15:22:25;5.80;59.80
7447;DHT22;3765;47.962;7.952;2022-12-07T15:24:55;5.80;60.00
7447;DHT22;3765;47.962;7.952;2022-12-07T15:27:23;5.60;60.30
7447;DHT22;3765;47.962;7.952;2022-12-07T15:29:51;5.70;60.40
7447;DHT22;3765;47.962;7.952;2022-12-07T15:32:20;5.80;60.50
7447;DHT22;3765;47.962;7.952;2022-12-07T15:34:49;5.60;60.60
7447;DHT22;3765;47.962;7.952;2022-12-07T15:37:18;5.40;60.70
7447;DHT22;3765;47.962;7.952;2022-12-07T15:39:46;5.40;61.10
7447;DHT22;3765;47.962;7.952;2022-12-07T15:42:16;5.40;61.10
7447;DHT22;3765;47.962;7.952;2022-12-07T15:44:44;5.30;61.30
7447;DHT22;3765;47.962;7.952;2022-12-07T15:47:31;5.30;61.60
7447;DHT22;3765;47.962;7.952;2022-12-07T15:50:19;5.10;61.50
7447;DHT22;3765;47.962;7.952;2022-12-07T15:52:47;5.10;61.60
7447;DHT22;3765;47.962;7.952;2022-12-07T15:55:16;5.10;61.60
7447;DHT22;3765;47.962;7.952;2022-12-07T15:57:45;5.10;61.70
7447;DHT22;3765;47.962;7.952;2022-12-07T16:00:14;5.00;61.80
7447;DHT22;3765;47.962;7.952;2022-12-07T16:02:42;5.00;61.90
7447;DHT22;3765;47.962;7.952;2022-12-07T16:05:10;5.00;62.00
7447;DHT22;3765;47.962;7.952;2022-12-07T16:07:39;4.90;62.30
7447;DHT22;3765;47.962;7.952;2022-12-07T16:10:13;5.00;62.40
7447;DHT22;3765;47.962;7.952;2022-12-07T16:12:41;4.90;62.40
7447;DHT22;3765;47.962;7.952;2022-12-07T16:15:11;4.80;62.70
7447;DHT22;3765;47.962;7.952;2022-12-07T16:17:39;4.80;62.90
7447;DHT22;3765;47.962;7.952;2022-12-07T16:20:08;4.80;62.90
7447;DHT22;3765;47.962;7.952;2022-12-07T16:22:37;4.70;62.90
7447;DHT22;3765;47.962;7.952;2022-12-07T16:25:05;4.70;63.10
7447;DHT22;3765;47.962;7.952;2022-12-07T16:27:34;4.70;63.10
7447;DHT22;3765;47.962;7.952;2022-12-07T16:30:03;4.60;63.20
7447;DHT22;3765;47.962;7.952;2022-12-07T16:32:33;4.50;63.20
7447;DHT22;3765;47.962;7.952;2022-12-07T16:35:01;4.50;63.30
7447;DHT22;3765;47.962;7.952;2022-12-07T16:37:30;4.30;63.50
7447;DHT22;3765;47.962;7.952;2022-12-07T16:39:58;4.20;63.80
7447;DHT22;3765;47.962;7.952;2022-12-07T16:42:27;4.10;64.00
7447;DHT22;3765;47.962;7.952;2022-12-07T16:44:59;4.00;64.10
7447;DHT22;3765;47.962;7.952;2022-12-07T16:47:28;3.90;64.30
7447;DHT22;3765;47.962;7.952;2022-12-07T16:49:58;3.90;64.40
7447;DHT22;3765;47.962;7.952;2022-12-07T16:52:26;3.80;64.50
7447;DHT22;3765;47.962;7.952;2022-12-07T16:54:54;3.80;64.70
7447;DHT22;3765;47.962;7.952;2022-12-07T16:57:22;3.70;64.90
7447;DHT22;3765;47.962;7.952;2022-12-07T16:59:51;3.70;64.90
7447;DHT22;3765;47.962;7.952;2022-12-07T17:02:20;3.60;65.00
7447;DHT22;3765;47.962;7.952;2022-12-07T17:04:48;3.50;65.20